Etusivu
METAR-TAF:

METAR-TAF

Lentoasemat :

Toulouse-Blagnacin lentoasema

Toulouse, Ranska

Leveyspiiri: 43-38N, Pituuspiiri: 001-22E, korkeus merenpinnasta: 152 m

Tämänhetkinen sää

Tämä raportti tehtiin 13 minuuttia sitten, kello 21.30 UTC
Tuuli 9 kn lännestä
Lämpötila 22°C
Kosteus 60%
Ilmanpaine 1018 hPa
Näkyvyys 10 km tai enemmän
ei pilviä alle 1500 m:ssä eikä cumulonimbus-pilviä

METAR: LFBO 222130Z AUTO 27009KT CAVOK 22/14 Q1018 NOSIG

Aika: 23:43 (21:43 UTC)

Sääennuste

Tämä raportti tehtiin 4 tuntia ja 43 minuuttia sitten, kello 17.00 UTC
Ennuste voimassa 22. päivästä klo 18 UTC - 23. päivään klo 24 UTC
Tuuli 5 kn lännestä/luoteesta
Näkyvyys 10 km tai enemmän
ei pilviä alle 1500 m:ssä eikä cumulonimbus-pilviä

TAF: LFBO 221700Z 2218/2324 30005KT CAVOK

Säähavainnot ja -ennusteet yli 4000 lentoasemalta (METAR- ja TAF-raportit).

Käytössä olevat sääasemat on merkitty karttaan keltaisilla ja punaisilla pisteillä.

Aseta hiiri pisteen päälle nähdäksesi sääaseman nimen.

Klikkaa sitten nähdäksesi säähavainnot ja -ennusteet.

Kartan vaihtaminen: klikkaa mustalla rastilla varustettuja vihreitä pisteitä, niin voit zoomata sisään; viivalla varustettua vihreää pistettä, niin voit zoomata ulos tai vihreitä nuolia, niin pääset viereisille kartoille.


METAR-TAF: